Time;durP1;ratioP1;P1;durP2;ratioP2;P2;SDS_P1;SDS_P2;PMS_P1;PMS_P2;Temp;Humidity;BMP_temperature;BMP_pressure;BME280_temperature;BME280_humidity;BME280_pressure;Samples;Min_cycle;Max_cycle;Signal;HPM_P1;HPM_P2
2022/09/03 00:01:09;;;;;;;0.00;0.00;;;;;;;16.47;53.46;101021.94;4994431;28;20030;-75
2022/09/03 00:03:42;;;;;;;0.00;0.00;;;;;;;16.67;53.46;101053.47;4993383;28;20392;-74
2022/09/03 00:06:16;;;;;;;0.00;0.00;;;;;;;16.63;53.52;101053.78;4993385;28;20434;-74
2022/09/03 00:08:58;;;;;;;0.00;0.00;;;;;;;16.60;53.60;101048.66;4996050;28;20030;-74
2022/09/03 00:12:03;;;;;;;0.00;0.00;;;;;;;16.63;54.40;101050.19;4992627;28;20030;-74
2022/09/03 00:14:39;;;;;;;0.00;0.00;;;;;;;16.46;54.49;101050.03;4997954;28;20037;-74
2022/09/03 00:17:10;;;;;;;0.00;0.00;;;;;;;16.45;54.63;101042.91;4992384;28;20084;-74
2022/09/03 00:19:44;;;;;;;0.00;0.00;;;;;;;16.30;54.62;101031.75;4994524;28;20022;-74
2022/09/03 00:22:18;;;;;;;0.00;0.00;;;;;;;16.25;55.35;101025.94;5003999;28;20042;-74
2022/09/03 00:24:44;;;;;;;0.08;0.08;;;;;;;16.28;55.37;101036.47;4993683;28;20088;-74
2022/09/03 00:27:16;;;;;;;0.00;0.00;;;;;;;16.22;54.72;101017.25;4992383;28;20032;-74
2022/09/03 00:29:51;;;;;;;0.00;0.00;;;;;;;16.37;54.96;101045.53;4993346;28;20034;-74
2022/09/03 00:32:21;;;;;;;0.00;0.00;;;;;;;16.42;55.41;101056.75;4977545;28;20044;-74
2022/09/03 00:34:50;;;;;;;0.00;0.00;;;;;;;16.37;54.88;101042.81;4991334;28;20021;-74
2022/09/03 00:37:16;;;;;;;0.00;0.00;;;;;;;16.47;54.88;101050.88;4997101;28;20041;-74
2022/09/03 00:39:42;;;;;;;0.00;0.00;;;;;;;16.48;54.71;101052.59;4995159;28;20030;-74
2022/09/03 00:42:25;;;;;;;0.00;0.00;;;;;;;16.45;54.80;101055.59;4992289;28;20084;-74
2022/09/03 00:45:02;;;;;;;0.00;0.00;;;;;;;16.36;55.39;101053.81;4993910;28;20040;-74
2022/09/03 00:48:01;;;;;;;0.00;0.00;;;;;;;16.34;55.36;101054.81;4995555;28;20403;-75
2022/09/03 00:51:00;;;;;;;0.00;0.00;;;;;;;16.36;56.16;101051.13;4996917;28;20033;-73
2022/09/03 00:53:51;;;;;;;0.08;0.08;;;;;;;16.33;55.59;101054.97;4996538;28;20117;-74
2022/09/03 00:56:35;;;;;;;0.10;0.00;;;;;;;16.29;55.59;101054.41;4997176;28;20040;-74
2022/09/03 00:59:16;;;;;;;0.00;0.00;;;;;;;16.28;55.90;101050.00;5000941;28;20018;-74
2022/09/03 01:01:56;;;;;;;0.00;0.00;;;;;;;16.30;55.46;101048.00;4999800;28;21153;-75
2022/09/03 01:04:37;;;;;;;0.00;0.00;;;;;;;16.31;55.38;101047.00;5000013;28;20026;-75
2022/09/03 01:07:08;;;;;;;0.00;0.00;;;;;;;16.28;55.68;101055.44;5002655;28;20076;-74
2022/09/03 01:09:53;;;;;;;0.00;0.00;;;;;;;16.31;55.82;101051.53;4985545;28;20108;-75
2022/09/03 01:12:43;;;;;;;0.00;0.00;;;;;;;16.18;55.77;101036.53;4998450;28;20029;-75
2022/09/03 01:15:21;;;;;;;0.00;0.00;;;;;;;16.20;56.32;101049.91;4998032;28;20483;-74
2022/09/03 01:18:24;;;;;;;0.00;0.00;;;;;;;16.23;56.21;101046.91;4994736;28;20037;-74
2022/09/03 01:21:15;;;;;;;0.00;0.00;;;;;;;16.21;55.69;101053.47;4993435;28;20030;-74
2022/09/03 01:24:06;;;;;;;0.00;0.00;;;;;;;16.17;56.08;101050.19;4998280;28;20030;-74
2022/09/03 01:27:05;;;;;;;0.00;0.00;;;;;;;16.15;57.00;101046.81;4998360;28;20361;-74
2022/09/03 01:29:52;;;;;;;0.00;0.00;;;;;;;16.11;55.98;101048.13;5000238;28;20125;-75
2022/09/03 01:32:49;;;;;;;0.00;0.00;;;;;;;16.18;56.32;101046.50;4994670;28;20472;-75
2022/09/03 01:35:34;;;;;;;0.00;0.00;;;;;;;16.15;56.07;101044.13;4989883;28;20133;-74
2022/09/03 01:38:03;;;;;;;0.00;0.00;;;;;;;15.91;56.07;101015.69;5000673;28;20791;-74
2022/09/03 01:40:52;;;;;;;0.00;0.00;;;;;;;16.13;56.36;101052.38;4995823;28;20030;-74
2022/09/03 01:43:43;;;;;;;0.00;0.00;;;;;;;16.14;56.12;101054.06;4998282;28;20030;-75
2022/09/03 01:46:13;;;;;;;0.00;0.00;;;;;;;16.13;56.36;101051.53;5001491;28;20278;-74
2022/09/03 01:48:48;;;;;;;0.00;0.00;;;;;;;16.12;56.14;101055.25;4989413;28;20060;-74
2022/09/03 01:51:20;;;;;;;0.00;0.00;;;;;;;15.98;56.59;101038.47;4994257;28;20891;-74
2022/09/03 01:54:23;;;;;;;0.00;0.00;;;;;;;15.97;57.34;101057.59;4999116;28;20029;-74
2022/09/03 01:57:13;;;;;;;0.00;0.00;;;;;;;15.99;56.39;101047.47;4995702;28;20076;-75
2022/09/03 01:59:43;;;;;;;0.00;0.00;;;;;;;15.92;56.77;101060.72;4998145;28;20456;-74
2022/09/03 02:02:20;;;;;;;0.00;0.00;;;;;;;15.94;56.77;101056.03;4998375;28;20205;-75
2022/09/03 02:05:01;;;;;;;0.00;0.00;;;;;;;15.84;57.20;101058.75;4992561;28;20034;-74
2022/09/03 02:07:32;;;;;;;0.00;0.00;;;;;;;15.86;56.72;101056.78;4994058;28;20041;-74
2022/09/03 02:10:00;;;;;;;0.00;0.00;;;;;;;15.59;56.98;101016.97;4992183;28;20026;-74
2022/09/03 02:12:32;;;;;;;0.00;0.00;;;;;;;15.86;56.89;101055.94;4995230;28;20033;-75
2022/09/03 02:14:59;;;;;;;0.00;0.00;;;;;;;15.71;57.35;101050.13;5002206;28;20022;-75
2022/09/03 02:17:25;;;;;;;0.00;0.00;;;;;;;15.65;57.71;101038.00;4993023;28;20040;-74
2022/09/03 02:19:50;;;;;;;0.00;0.00;;;;;;;15.68;57.73;101056.66;4996436;28;20038;-74
2022/09/03 02:22:16;;;;;;;0.10;0.10;;;;;;;15.55;57.78;101039.91;4997926;28;20506;-74
2022/09/03 02:24:41;;;;;;;0.00;0.00;;;;;;;15.69;57.23;101049.41;4996683;28;20034;-73
2022/09/03 02:27:06;;;;;;;0.00;0.00;;;;;;;15.69;57.47;101035.88;5000440;28;20040;-74
2022/09/03 02:29:32;;;;;;;0.00;0.00;;;;;;;15.40;57.79;101013.31;4994254;28;20036;-74
2022/09/03 02:31:57;;;;;;;0.00;0.00;;;;;;;15.66;57.67;101050.53;4997881;28;20037;-74
2022/09/03 02:34:23;;;;;;;0.00;0.00;;;;;;;15.47;57.71;101021.72;4993378;28;20025;-75
2022/09/03 02:36:48;;;;;;;0.10;0.10;;;;;;;15.63;57.65;101039.16;4997575;28;20047;-74
2022/09/03 02:39:15;;;;;;;0.00;0.00;;;;;;;15.54;57.93;101033.63;4997751;28;20076;-74
2022/09/03 02:41:40;;;;;;;0.00;0.00;;;;;;;15.53;57.73;101037.34;4991838;28;20490;-74
2022/09/03 02:44:16;;;;;;;0.08;0.08;;;;;;;15.53;58.34;101047.31;4993854;28;20034;-73
2022/09/03 02:46:56;;;;;;;0.00;0.00;;;;;;;15.35;58.53;101036.41;4996850;28;20120;-74
2022/09/03 02:49:22;;;;;;;0.00;0.00;;;;;;;15.27;60.12;101047.97;4996882;28;20491;-73
2022/09/03 02:51:47;;;;;;;0.00;0.00;;;;;;;15.26;59.52;101047.09;4991917;28;20117;-74
2022/09/03 02:54:13;;;;;;;0.00;0.00;;;;;;;15.18;59.38;101044.28;4997197;28;20034;-74
2022/09/03 02:56:38;;;;;;;0.00;0.00;;;;;;;15.20;59.97;101049.53;4996938;28;20044;-73
2022/09/03 02:59:05;;;;;;;0.00;0.00;;;;;;;15.22;59.73;101048.41;4995393;28;20534;-74
2022/09/03 03:01:31;;;;;;;0.00;0.00;;;;;;;15.16;59.88;101035.47;4996013;28;20034;-74
2022/09/03 03:03:56;;;;;;;0.00;0.00;;;;;;;15.14;59.73;101026.63;4991571;28;20034;-74
2022/09/03 03:06:21;;;;;;;0.00;0.00;;;;;;;15.13;59.81;101024.94;4991139;28;20105;-75
2022/09/03 03:08:48;;;;;;;0.00;0.00;;;;;;;15.31;59.29;101043.97;4993707;28;20061;-74
2022/09/03 03:11:17;;;;;;;0.10;0.10;;;;;;;15.35;59.53;101039.13;4976788;28;20368;-74
2022/09/03 03:13:45;;;;;;;0.00;0.00;;;;;;;15.38;58.97;101042.38;4990056;28;20496;-75
2022/09/03 03:16:12;;;;;;;0.00;0.00;;;;;;;15.40;58.94;101040.38;4990922;28;20038;-75
2022/09/03 03:18:38;;;;;;;0.00;0.00;;;;;;;15.36;59.79;101049.78;4994684;28;20064;-75
2022/09/03 03:21:08;;;;;;;0.00;0.00;;;;;;;15.35;59.33;101036.41;4992855;28;20455;-75
2022/09/03 03:23:34;;;;;;;0.00;0.00;;;;;;;15.41;59.31;101044.78;4991630;28;20026;-75
2022/09/03 03:26:01;;;;;;;0.00;0.00;;;;;;;15.40;59.19;101034.97;4990556;28;20038;-75
2022/09/03 03:28:26;;;;;;;0.00;0.00;;;;;;;15.35;59.92;101045.38;4995940;28;20033;-74
2022/09/03 03:30:53;;;;;;;0.00;0.00;;;;;;;15.33;59.74;101041.97;4993191;28;20128;-74
2022/09/03 03:33:18;;;;;;;0.00;0.00;;;;;;;15.36;59.35;101038.94;4994739;28;20029;-75
2022/09/03 03:35:43;;;;;;;0.10;0.10;;;;;;;15.34;59.37;101043.69;4990764;28;20060;-74
2022/09/03 03:38:09;;;;;;;0.00;0.00;;;;;;;15.26;59.71;101041.69;4993921;28;20464;-75
2022/09/03 03:40:38;;;;;;;0.00;0.00;;;;;;;15.23;59.68;101044.66;4991944;28;20044;-74
2022/09/03 03:43:03;;;;;;;0.00;0.00;;;;;;;15.22;59.66;101048.41;4990844;28;20045;-75
2022/09/03 03:45:29;;;;;;;0.00;0.00;;;;;;;15.10;59.83;101017.94;4995552;28;20431;-74
2022/09/03 03:47:58;;;;;;;0.00;0.00;;;;;;;15.25;59.42;101031.84;4995421;28;20571;-73
2022/09/03 03:50:24;;;;;;;0.00;0.00;;;;;;;15.28;59.21;101036.97;4993569;28;20025;-75
2022/09/03 03:52:49;;;;;;;0.00;0.00;;;;;;;15.28;59.53;101041.56;4992519;28;20620;-75
2022/09/03 03:55:15;;;;;;;0.10;0.10;;;;;;;15.28;59.62;101044.25;4987645;28;21176;-74
2022/09/03 03:57:40;;;;;;;0.00;0.00;;;;;;;15.17;60.13;101036.28;4997507;28;20044;-74
2022/09/03 04:00:06;;;;;;;0.00;0.00;;;;;;;15.21;59.68;101040.41;5004960;28;20033;-74
2022/09/03 04:02:32;;;;;;;0.00;0.00;;;;;;;15.17;59.99;101041.69;5000469;28;20445;-74
2022/09/03 04:04:58;;;;;;;0.00;0.00;;;;;;;15.14;59.75;101035.59;5001851;28;20109;-74
2022/09/03 04:07:23;;;;;;;0.00;0.00;;;;;;;15.08;60.14;101038.03;5004602;28;20032;-73
2022/09/03 04:09:48;;;;;;;0.00;0.00;;;;;;;14.84;60.46;101007.72;5004440;28;20030;-74
2022/09/03 04:12:14;;;;;;;0.10;0.10;;;;;;;14.92;59.88;101006.16;4993837;28;20468;-75
2022/09/03 04:14:39;;;;;;;0.00;0.00;;;;;;;15.08;60.31;101035.31;5000797;28;20037;-74
2022/09/03 04:17:04;;;;;;;0.10;0.10;;;;;;;15.02;60.67;101042.16;5000499;28;20038;-75
2022/09/03 04:19:30;;;;;;;0.03;0.03;;;;;;;15.05;60.12;101036.47;5008639;28;20022;-74
2022/09/03 04:21:55;;;;;;;0.00;0.00;;;;;;;14.91;59.97;101008.03;5009681;28;20084;-74
2022/09/03 04:24:21;;;;;;;0.00;0.00;;;;;;;15.07;59.71;101036.31;5000842;28;20479;-74
2022/09/03 04:26:49;;;;;;;0.00;0.00;;;;;;;15.04;60.39;101033.88;5002655;28;20025;-74
2022/09/03 04:29:14;;;;;;;0.10;0.10;;;;;;;15.05;60.28;101039.16;5005783;28;20140;-74
2022/09/03 04:32:51;;;;;;;0.00;0.00;;;;;;;14.95;60.91;101032.91;5002092;28;20056;-73
2022/09/03 04:34:25;;;;;;;0.00;0.00;;;;;;;14.81;61.47;101036.91;4996138;28;20046;-75
2022/09/03 04:36:50;;;;;;;0.00;0.00;;;;;;;14.75;61.58;101037.47;5004045;28;20343;-75
2022/09/03 04:39:15;;;;;;;0.00;0.00;;;;;;;14.70;61.55;101032.50;5003988;28;20446;-75
2022/09/03 04:41:40;;;;;;;0.00;0.00;;;;;;;14.72;61.37;101029.63;5003413;28;20069;-75
2022/09/03 04:44:06;;;;;;;0.00;0.00;;;;;;;14.66;61.78;101017.53;4998819;28;20117;-75
2022/09/03 04:46:32;;;;;;;0.00;0.00;;;;;;;14.59;61.62;101014.53;5000998;28;20026;-75
2022/09/03 04:48:57;;;;;;;0.00;0.00;;;;;;;14.68;61.96;101023.63;5003392;28;20026;-74
2022/09/03 04:51:26;;;;;;;0.00;0.00;;;;;;;14.77;61.42;101025.53;5000442;28;20033;-74
2022/09/03 04:54:00;;;;;;;0.00;0.00;;;;;;;14.67;61.83;101024.63;4997182;28;20477;-72
2022/09/03 04:56:27;;;;;;;0.00;0.00;;;;;;;14.65;61.84;101021.22;4998400;28;20129;-73
2022/09/03 04:58:57;;;;;;;0.00;0.00;;;;;;;14.50;62.44;101000.03;5004405;28;20492;-74
2022/09/03 05:01:25;;;;;;;0.00;0.00;;;;;;;14.72;61.68;101026.94;4998493;28;20529;-74
2022/09/03 05:03:51;;;;;;;0.10;0.10;;;;;;;14.63;61.88;101026.78;4998878;28;20062;-74
2022/09/03 05:06:16;;;;;;;0.10;0.10;;;;;;;14.68;61.77;101029.94;5002721;28;20054;-73
2022/09/03 05:08:45;;;;;;;0.00;0.00;;;;;;;14.51;61.79;101011.69;5002721;28;20034;-74
2022/09/03 05:11:10;;;;;;;0.00;0.00;;;;;;;14.55;62.66;101027.50;5003343;28;20026;-75
2022/09/03 05:13:35;;;;;;;0.00;0.00;;;;;;;14.58;62.31;101033.56;5000690;28;20338;-74
2022/09/03 05:16:03;;;;;;;0.00;0.00;;;;;;;14.50;62.50;101024.34;4996166;28;20040;-74
2022/09/03 05:18:28;;;;;;;0.00;0.00;;;;;;;14.51;62.66;101023.34;5000239;28;20623;-75
2022/09/03 05:21:01;;;;;;;0.00;0.00;;;;;;;14.65;62.11;101035.59;5000225;28;20034;-74
2022/09/03 05:23:27;;;;;;;0.00;0.00;;;;;;;14.70;61.78;101036.03;4999383;28;20445;-75
2022/09/03 05:26:01;;;;;;;0.00;0.00;;;;;;;14.74;61.70;101033.06;4994547;28;20065;-74
2022/09/03 05:28:28;;;;;;;0.00;0.00;;;;;;;14.75;61.92;101041.03;5000714;28;20558;-75
2022/09/03 05:31:04;;;;;;;0.00;0.00;;;;;;;14.74;61.97;101038.44;4996375;28;20042;-75
2022/09/03 05:33:33;;;;;;;0.05;0.05;;;;;;;14.77;61.66;101044.44;4998353;28;20125;-74
2022/09/03 05:36:04;;;;;;;0.00;0.00;;;;;;;14.62;62.23;101016.09;4995601;28;20022;-75
2022/09/03 05:38:29;;;;;;;0.00;0.00;;;;;;;14.73;62.30;101036.75;4996181;28;20025;-74
2022/09/03 05:41:03;;;;;;;0.00;0.00;;;;;;;14.75;61.82;101023.94;4998350;28;20030;-75
2022/09/03 05:43:29;;;;;;;0.00;0.00;;;;;;;14.85;61.77;101033.75;4995310;28;20712;-75
2022/09/03 05:46:03;;;;;;;0.00;0.00;;;;;;;14.87;61.86;101039.03;4995321;28;20444;-75
2022/09/03 05:48:29;;;;;;;0.00;0.00;;;;;;;14.82;62.06;101034.06;4994969;28;20171;-74
2022/09/03 05:50:59;;;;;;;0.00;0.00;;;;;;;14.89;61.72;101041.59;4997132;28;20048;-73
2022/09/03 05:53:25;;;;;;;0.00;0.00;;;;;;;14.87;62.34;101038.16;4999287;28;20152;-75
2022/09/03 05:55:57;;;;;;;0.00;0.00;;;;;;;14.90;62.10;101043.28;4997451;28;20063;-75
2022/09/03 05:58:24;;;;;;;0.00;0.00;;;;;;;14.95;62.10;101044.59;4987260;28;20432;-74
2022/09/03 06:00:49;;;;;;;0.00;0.00;;;;;;;14.81;61.84;101012.56;4999758;28;20536;-73
2022/09/03 06:03:15;;;;;;;0.00;0.00;;;;;;;15.12;61.59;101042.16;5006164;28;20044;-74
2022/09/03 06:05:49;;;;;;;0.08;0.08;;;;;;;15.15;61.19;101039.16;4998156;28;20026;-75
2022/09/03 06:08:14;;;;;;;0.00;0.00;;;;;;;15.23;61.06;101036.56;4999564;28;20108;-75
2022/09/03 06:10:40;;;;;;;0.00;0.00;;;;;;;15.29;61.24;101049.50;5002164;28;20053;-72
2022/09/03 06:13:05;;;;;;;0.10;0.10;;;;;;;15.38;61.54;101046.94;4999518;28;20041;-73
2022/09/03 06:15:31;;;;;;;0.00;0.00;;;;;;;15.42;61.18;101049.19;5001743;28;20038;-75
2022/09/03 06:17:56;;;;;;;0.10;0.10;;;;;;;15.58;60.58;101047.75;5002743;28;20033;-76
2022/09/03 06:20:27;;;;;;;0.00;0.00;;;;;;;15.75;60.46;101043.41;4996179;28;20065;-74
2022/09/03 06:22:53;;;;;;;0.00;0.00;;;;;;;15.76;60.63;101036.97;4999135;28;20038;-73
2022/09/03 06:25:19;;;;;;;0.00;0.00;;;;;;;15.98;59.90;101038.47;4996198;28;20037;-74
2022/09/03 06:27:44;;;;;;;0.10;0.10;;;;;;;16.06;60.30;101040.44;4993847;28;20112;-74
2022/09/03 06:30:10;;;;;;;0.00;0.00;;;;;;;16.12;59.24;101044.41;4998112;28;20064;-74
2022/09/03 06:32:45;;;;;;;0.00;0.00;;;;;;;16.23;59.04;101046.06;4999613;28;20040;-74
2022/09/03 06:35:11;;;;;;;0.00;0.00;;;;;;;16.19;58.59;101021.09;4994953;28;20040;-76
2022/09/03 06:37:40;;;;;;;0.00;0.00;;;;;;;16.45;58.81;101042.03;4991549;28;20306;-70
2022/09/03 06:40:08;;;;;;;0.00;0.00;;;;;;;16.59;58.34;101046.09;4997352;28;20574;-72
2022/09/03 06:42:33;;;;;;;0.10;0.10;;;;;;;16.61;57.85;101044.94;4996175;28;20022;-73
2022/09/03 06:44:59;;;;;;;0.10;0.10;;;;;;;16.73;57.82;101047.41;4993965;28;20138;-73
2022/09/03 06:47:24;;;;;;;0.00;0.00;;;;;;;16.86;56.89;101036.16;4996742;28;20468;-73
2022/09/03 06:49:49;;;;;;;0.00;0.00;;;;;;;16.89;56.76;101041.28;4996445;28;20034;-74
2022/09/03 06:52:14;;;;;;;0.00;0.00;;;;;;;17.02;56.45;101043.63;4994949;28;20034;-73
2022/09/03 06:54:40;;;;;;;0.10;0.10;;;;;;;17.02;56.21;101041.78;4999419;28;20453;-74
2022/09/03 06:57:05;;;;;;;0.00;0.00;;;;;;;17.13;55.34;101026.25;4995199;28;20033;-75
2022/09/03 06:59:30;;;;;;;0.10;0.00;;;;;;;17.09;56.27;101034.69;4992151;28;20052;-72
2022/09/03 07:01:57;;;;;;;0.00;0.00;;;;;;;17.25;55.08;101041.28;4994475;28;20400;-73
2022/09/03 07:04:23;;;;;;;0.00;0.00;;;;;;;17.20;55.93;101025.47;4995075;28;20471;-74
2022/09/03 07:06:49;;;;;;;0.00;0.00;;;;;;;17.49;55.53;101043.28;4993209;28;20084;-73
2022/09/03 07:09:16;;;;;;;0.00;0.00;;;;;;;17.63;54.39;101032.84;4997372;28;20038;-75
2022/09/03 07:11:45;;;;;;;0.00;0.00;;;;;;;17.79;54.87;101051.09;4998050;28;20072;-73
2022/09/03 07:14:11;;;;;;;0.00;0.00;;;;;;;17.93;54.50;101045.03;4993330;28;20064;-73
2022/09/03 07:16:37;;;;;;;0.00;0.00;;;;;;;17.83;55.04;101031.59;4995708;28;20527;-76
2022/09/03 07:19:03;;;;;;;0.00;0.00;;;;;;;18.12;54.10;101043.13;4995364;28;20045;-73
2022/09/03 07:21:32;;;;;;;0.00;0.00;;;;;;;18.24;52.66;101041.78;4991939;28;20037;-73
2022/09/03 07:23:58;;;;;;;0.00;0.00;;;;;;;18.37;52.64;101046.75;4994592;28;20033;-72
2022/09/03 07:26:26;;;;;;;0.00;0.00;;;;;;;18.39;52.26;101043.88;5001181;28;20061;-73
2022/09/03 07:28:53;;;;;;;0.00;0.00;;;;;;;18.51;52.67;101036.25;5002121;28;20456;-73
2022/09/03 07:31:26;;;;;;;0.00;0.00;;;;;;;18.71;51.75;101042.22;5007123;28;20427;-73
2022/09/03 07:33:54;;;;;;;;;;;;;;;18.79;51.19;101035.97;4990892;28;20452;-73
2022/09/03 07:36:21;;;;;;;0.05;0.05;;;;;;;18.93;52.20;101032.56;4996607;28;19940;-73
2022/09/03 07:38:46;;;;;;;0.00;0.00;;;;;;;18.98;50.80;101030.22;5002012;28;20030;-70
2022/09/03 07:41:13;;;;;;;0.08;0.08;;;;;;;19.16;50.60;101040.91;4994741;28;20041;-77
2022/09/03 07:43:42;;;;;;;0.10;0.10;;;;;;;19.27;49.61;101042.44;5004090;28;20029;-73
2022/09/03 07:46:11;;;;;;;0.00;0.00;;;;;;;19.25;50.13;101028.16;5007135;28;20022;-74
2022/09/03 07:48:38;;;;;;;0.00;0.00;;;;;;;19.46;48.46;101048.53;5006516;28;20515;-72
2022/09/03 07:51:03;;;;;;;0.00;0.00;;;;;;;19.49;49.08;101043.56;5004850;28;20040;-74
2022/09/03 07:53:29;;;;;;;0.10;0.10;;;;;;;19.59;48.98;101057.00;5004574;28;20026;-73
2022/09/03 07:56:03;;;;;;;0.10;0.10;;;;;;;19.63;49.24;101047.44;5002944;28;20037;-74
2022/09/03 07:58:29;;;;;;;0.00;0.00;;;;;;;19.76;49.09;101056.97;5001695;28;20030;-75
2022/09/03 08:00:56;;;;;;;0.30;0.03;;;;;;;19.84;48.96;101048.78;5001126;28;20075;-78
2022/09/03 08:03:21;;;;;;;0.00;0.00;;;;;;;19.83;48.11;101054.38;4994886;28;20494;-75
2022/09/03 08:05:47;;;;;;;0.00;0.00;;;;;;;19.85;48.75;101038.72;5001120;28;20034;-75
2022/09/03 08:08:13;;;;;;;0.00;0.00;;;;;;;20.11;47.48;101051.22;4997262;28;20122;-77
2022/09/03 08:10:39;;;;;;;0.00;0.00;;;;;;;20.00;47.57;101031.50;4998194;28;20030;-76
2022/09/03 08:13:04;;;;;;;0.00;0.00;;;;;;;20.31;46.08;101051.66;5003859;28;20026;-71
2022/09/03 08:15:31;;;;;;;0.00;0.00;;;;;;;20.27;47.55;101040.22;5001642;28;20061;-74
2022/09/03 08:17:56;;;;;;;0.00;0.00;;;;;;;20.47;47.56;101053.44;4997879;28;20626;-75
2022/09/03 08:20:21;;;;;;;0.00;0.00;;;;;;;20.70;47.37;101056.16;4999900;28;20473;-75
2022/09/03 08:22:47;;;;;;;0.00;0.00;;;;;;;20.78;47.46;101047.97;5000574;28;20149;-75
2022/09/03 08:25:13;;;;;;;0.00;0.00;;;;;;;20.83;46.38;101047.41;5001608;28;20056;-75
2022/09/03 08:27:38;;;;;;;0.00;0.00;;;;;;;20.92;46.56;101064.59;5000042;28;20038;-73
2022/09/03 08:30:04;;;;;;;0.00;0.00;;;;;;;21.01;46.49;101057.19;5002448;28;20026;-73
2022/09/03 08:32:30;;;;;;;0.00;0.00;;;;;;;21.17;45.82;101062.47;5001306;28;20042;-74
2022/09/03 08:34:55;;;;;;;0.00;0.00;;;;;;;21.31;45.12;101060.00;4999209;28;20088;-75
2022/09/03 08:37:24;;;;;;;0.00;0.00;;;;;;;21.43;45.21;101050.28;5004002;28;20021;-76
2022/09/03 08:39:49;;;;;;;0.00;0.00;;;;;;;21.63;44.27;101068.88;5003227;28;20029;-75
2022/09/03 08:42:51;;;;;;;0.00;0.00;;;;;;;21.65;45.04;101047.69;5001945;28;20034;-74
2022/09/03 08:45:18;;;;;;;0.00;0.00;;;;;;;21.85;44.89;101072.59;4991446;28;20038;-75
2022/09/03 08:47:51;;;;;;;0.00;0.00;;;;;;;22.03;43.59;101077.66;4997944;28;20144;-75
2022/09/03 08:50:24;;;;;;;0.00;0.00;;;;;;;21.98;42.61;101055.50;5000191;28;20041;-75
2022/09/03 08:53:42;;;;;;;0.08;0.00;;;;;;;22.01;44.37;101047.78;4998136;28;20028;-75
2022/09/03 08:56:13;;;;;;;0.00;0.00;;;;;;;22.24;43.83;101057.75;4976403;28;20037;-75
2022/09/03 08:58:43;;;;;;;0.00;0.00;;;;;;;22.29;43.77;101049.78;4998091;28;20380;-76
2022/09/03 09:01:10;;;;;;;0.00;0.00;;;;;;;22.30;43.76;101061.59;5001662;28;20029;-75
2022/09/03 09:03:47;;;;;;;0.00;0.00;;;;;;;22.55;43.01;101062.13;5003160;28;20038;-77
2022/09/03 09:06:35;;;;;;;0.00;0.00;;;;;;;22.73;41.47;101058.09;5003003;28;20037;-73
2022/09/03 09:09:07;;;;;;;0.00;0.00;;;;;;;22.62;42.60;101052.09;5007936;28;20048;-75
2022/09/03 09:11:42;;;;;;;0.00;0.00;;;;;;;22.79;42.03;101060.03;5007144;28;20034;-74
2022/09/03 09:14:22;;;;;;;0.00;0.00;;;;;;;22.80;41.41;101055.44;5004556;28;20124;-75
2022/09/03 09:17:04;;;;;;;0.00;0.00;;;;;;;22.88;41.89;101060.78;5001876;28;20038;-76
2022/09/03 09:19:52;;;;;;;0.00;0.00;;;;;;;22.99;41.24;101062.16;5006822;28;20028;-76
2022/09/03 09:22:37;;;;;;;0.00;0.00;;;;;;;23.09;40.85;101067.28;5005145;28;20104;-75
2022/09/03 09:25:08;;;;;;;0.00;0.00;;;;;;;23.15;41.62;101064.59;5000152;28;20033;-75
2022/09/03 09:27:33;;;;;;;0.00;0.00;;;;;;;23.35;40.99;101055.72;5003591;28;20036;-73
2022/09/03 09:30:00;;;;;;;0.00;0.00;;;;;;;23.30;40.96;101058.22;5008793;28;20030;-75
2022/09/03 09:32:26;;;;;;;0.00;0.00;;;;;;;23.19;41.04;101051.34;5005966;28;20513;-76
2022/09/03 09:34:53;;;;;;;0.00;0.00;;;;;;;23.42;41.63;101056.63;5002755;28;20089;-74
2022/09/03 09:37:19;;;;;;;0.00;0.00;;;;;;;23.69;42.15;101065.00;5004620;28;20037;-74
2022/09/03 09:39:56;;;;;;;0.00;0.00;;;;;;;23.83;41.35;101060.44;5009026;28;20029;-75
2022/09/03 09:42:22;;;;;;;0.00;0.00;;;;;;;23.96;39.61;101054.19;4996484;28;20030;-72
2022/09/03 09:44:48;;;;;;;0.00;0.00;;;;;;;24.03;40.70;101054.25;5003111;28;20498;-74
2022/09/03 09:47:30;;;;;;;0.00;0.00;;;;;;;24.20;39.11;101046.53;5009119;28;20026;-72
2022/09/03 09:49:58;;;;;;;0.00;0.00;;;;;;;24.32;39.85;101052.25;5007709;28;20030;-75
2022/09/03 09:52:25;;;;;;;0.32;0.00;;;;;;;24.46;39.50;101053.16;5004135;28;20034;-74
2022/09/03 09:54:53;;;;;;;0.00;0.00;;;;;;;24.71;40.47;101056.19;5006147;28;20058;-75
2022/09/03 09:57:25;;;;;;;0.00;0.00;;;;;;;24.34;38.59;101055.63;5003233;28;20081;-75
2022/09/03 10:00:12;;;;;;;0.30;0.00;;;;;;;24.49;39.04;101064.56;5008112;28;20022;-73
2022/09/03 10:02:41;;;;;;;0.00;0.00;;;;;;;24.60;38.39;101052.13;5007707;28;20026;-74
2022/09/03 10:05:18;;;;;;;0.00;0.00;;;;;;;24.61;37.62;101048.34;5001159;28;20030;-72
2022/09/03 10:08:03;;;;;;;0.00;0.00;;;;;;;24.56;38.45;101065.41;4997886;28;20130;-74
2022/09/03 10:10:34;;;;;;;0.00;0.00;;;;;;;24.36;39.30;101059.03;5006283;28;23299;-72
2022/09/03 10:13:10;;;;;;;0.00;0.00;;;;;;;24.58;38.93;101061.63;4999269;28;20030;-75
2022/09/03 10:15:49;;;;;;;0.00;0.00;;;;;;;24.82;38.24;101052.81;4997550;28;20637;-75
2022/09/03 10:18:31;;;;;;;0.00;0.00;;;;;;;25.23;37.71;101059.19;5003689;28;20503;-76
2022/09/03 10:21:19;;;;;;;0.00;0.00;;;;;;;25.29;37.97;101061.09;4996664;28;20038;-78
2022/09/03 10:24:14;;;;;;;0.15;0.10;;;;;;;25.34;37.06;101056.84;5003472;28;20030;-72
2022/09/03 10:26:43;;;;;;;0.00;0.00;;;;;;;24.73;37.50;101039.50;5005430;28;20030;-75
2022/09/03 10:29:09;;;;;;;0.00;0.00;;;;;;;24.98;38.52;101053.50;5009136;28;20819;-70
2022/09/03 10:32:12;;;;;;;0.10;0.10;;;;;;;25.25;40.79;101048.00;4987721;28;20037;-74
2022/09/03 10:35:11;;;;;;;0.00;0.00;;;;;;;25.63;37.47;101044.56;5004202;28;20084;-71
2022/09/03 10:37:48;;;;;;;0.00;0.00;;;;;;;25.92;37.22;101041.53;5002035;28;20598;-70
2022/09/03 10:40:35;;;;;;;0.08;0.00;;;;;;;26.19;36.07;101043.16;5000304;28;20022;-76
2022/09/03 10:43:16;;;;;;;0.00;0.00;;;;;;;26.60;35.29;101052.03;5017519;23;20022;-75
2022/09/03 10:46:07;;;;;;;0.00;0.00;;;;;;;26.57;35.88;101040.59;4981170;28;20078;-74
2022/09/03 10:48:49;;;;;;;0.00;0.00;;;;;;;25.98;35.76;101029.66;4980279;28;20088;-72
2022/09/03 10:51:32;;;;;;;0.00;0.00;;;;;;;26.09;36.94;101022.66;4977586;28;20030;-71
2022/09/03 10:54:14;;;;;;;0.08;0.08;;;;;;;26.16;36.23;101007.81;4996803;28;20460;-73
2022/09/03 10:56:59;;;;;;;0.00;0.00;;;;;;;26.24;35.53;101036.13;4981045;28;20026;-71
2022/09/03 10:59:50;;;;;;;0.00;0.00;;;;;;;26.49;35.17;101038.97;4977511;28;20034;-71
2022/09/03 11:02:33;;;;;;;0.00;0.00;;;;;;;26.75;35.39;101035.16;4969502;28;20030;-73
2022/09/03 11:05:04;;;;;;;0.00;0.00;;;;;;;27.17;35.12;101009.84;4975991;28;20472;-74
2022/09/03 11:07:57;;;;;;;0.00;0.00;;;;;;;27.15;35.28;101034.03;4980660;28;20042;-73
2022/09/03 11:10:31;;;;;;;0.00;0.00;;;;;;;27.62;34.35;101032.78;4986105;28;20452;-74
2022/09/03 11:12:56;;;;;;;0.00;0.00;;;;;;;28.02;34.37;101028.72;4980092;28;20030;-74
2022/09/03 11:15:52;;;;;;;0.00;0.00;;;;;;;28.37;33.95;101037.19;4978096;28;20045;-74
2022/09/03 11:18:32;;;;;;;0.00;0.00;;;;;;;27.91;33.42;101033.91;4973913;28;20512;-69
2022/09/03 11:21:02;;;;;;;0.00;0.00;;;;;;;27.75;33.85;101018.00;4980133;28;21108;-74
2022/09/03 11:23:32;;;;;;;0.00;0.00;;;;;;;27.45;34.12;101032.50;4991926;28;20432;-74
2022/09/03 11:26:00;;;;;;;0.00;0.00;;;;;;;27.72;34.95;101029.50;4978236;28;20038;-70
2022/09/03 11:28:44;;;;;;;0.00;0.00;;;;;;;27.58;33.99;101002.03;4990036;28;20080;-70
2022/09/03 11:31:24;;;;;;;0.00;0.00;;;;;;;27.94;33.32;101036.22;4979650;28;20034;-71
2022/09/03 11:33:53;;;;;;;0.00;0.00;;;;;;;27.47;33.89;101000.91;4971243;28;20036;-70
2022/09/03 11:36:28;;;;;;;0.00;0.00;;;;;;;28.04;33.30;101019.13;4974900;28;20022;-73
2022/09/03 11:38:53;;;;;;;0.00;0.00;;;;;;;28.31;33.19;101017.97;4992037;28;20022;-73
2022/09/03 11:41:27;;;;;;;0.00;0.00;;;;;;;28.87;32.44;101019.44;4978465;28;20037;-74
2022/09/03 11:43:55;;;;;;;0.00;0.00;;;;;;;29.12;31.44;101004.59;4988821;28;20068;-71
2022/09/03 11:46:20;;;;;;;0.00;0.00;;;;;;;28.84;31.74;101010.78;4999924;28;20065;-74